Time;durP1;ratioP1;P1;durP2;ratioP2;P2;SDS_P1;SDS_P2;PMS_P1;PMS_P2;Temp;Humidity;BMP_temperature;BMP_pressure;BME280_temperature;BME280_humidity;BME280_pressure;Samples;Min_cycle;Max_cycle;Signal;HPM_P1;HPM_P2
2024/01/16 05:22:32;;;;;;;4.70;2.58;;;;;;;-2.31;100.00;99805.66;5089521;28;20336;-34
2024/01/16 05:24:59;;;;;;;5.30;2.88;;;;;;;-2.41;100.00;99797.63;5089625;28;20070;-33
2024/01/16 05:27:25;;;;;;;3.28;2.65;;;;;;;-2.26;99.76;99798.38;5089372;28;20050;-35
2024/01/16 05:29:50;;;;;;;5.60;2.65;;;;;;;-2.09;99.19;99790.22;5089329;28;20048;-34
2024/01/16 05:32:16;;;;;;;4.88;2.80;;;;;;;-2.01;98.09;99800.16;5089354;28;20051;-34
2024/01/16 05:34:41;;;;;;;4.93;3.13;;;;;;;-2.19;98.75;99789.19;5089449;28;20419;-33
2024/01/16 05:37:06;;;;;;;3.65;2.72;;;;;;;-1.96;98.12;99775.44;5089221;28;20106;-34
2024/01/16 05:39:32;;;;;;;6.05;3.28;;;;;;;-1.99;98.12;99777.41;5089104;28;20093;-34
2024/01/16 05:41:57;;;;;;;4.50;2.88;;;;;;;-2.10;97.80;99765.06;5089218;28;20044;-34
2024/01/16 05:44:23;;;;;;;3.83;2.78;;;;;;;-2.28;98.96;99775.00;5089194;28;20062;-34
2024/01/16 05:46:48;;;;;;;5.40;3.10;;;;;;;-2.05;98.79;99770.81;5088946;28;20040;-34
2024/01/16 05:49:13;;;;;;;4.80;2.95;;;;;;;-2.09;98.29;99776.34;5089052;28;20193;-34
2024/01/16 05:51:39;;;;;;;4.57;2.95;;;;;;;-2.24;99.12;99775.59;5089086;28;20039;-34
2024/01/16 05:54:05;;;;;;;6.68;3.28;;;;;;;-2.34;99.67;99775.41;5089116;28;20484;-34
2024/01/16 05:56:31;;;;;;;4.57;2.90;;;;;;;-2.27;99.40;99781.06;5087452;28;20602;-35
2024/01/16 05:58:57;;;;;;;5.32;2.70;;;;;;;-2.47;100.00;99778.00;5089032;28;20044;-34
2024/01/16 06:01:22;;;;;;;5.75;3.50;;;;;;;-2.38;100.00;99783.53;5088914;28;20044;-34
2024/01/16 06:03:48;;;;;;;4.05;2.95;;;;;;;-2.24;99.71;99778.22;5089101;28;20039;-34
2024/01/16 06:06:14;;;;;;;4.78;2.53;;;;;;;-2.35;100.00;99775.47;5088813;28;20048;-35
2024/01/16 06:08:40;;;;;;;4.00;2.78;;;;;;;-2.47;100.00;99779.78;5088730;28;20047;-34
2024/01/16 06:11:05;;;;;;;6.20;3.35;;;;;;;-2.45;100.00;99780.50;5089011;28;20078;-34
2024/01/16 06:13:31;;;;;;;4.63;3.45;;;;;;;-2.42;100.00;99782.06;5088872;28;20041;-34
2024/01/16 06:15:57;;;;;;;5.80;3.67;;;;;;;-2.35;100.00;99781.53;5089185;28;20453;-35
2024/01/16 06:18:23;;;;;;;4.55;3.40;;;;;;;-2.30;100.00;99776.03;5090462;28;20094;-34
2024/01/16 06:20:48;;;;;;;4.10;3.05;;;;;;;-2.37;100.00;99774.75;5096731;28;20036;-34
2024/01/16 06:23:13;;;;;;;4.25;2.88;;;;;;;-2.43;100.00;99780.38;5099431;28;20392;-35
2024/01/16 06:25:39;;;;;;;4.05;2.97;;;;;;;-2.43;100.00;99788.22;5097153;28;20376;-33
2024/01/16 06:28:05;;;;;;;6.57;2.97;;;;;;;-2.31;100.00;99782.19;5097507;28;20044;-35
2024/01/16 06:30:30;;;;;;;4.57;2.85;;;;;;;-2.28;100.00;99785.44;5099265;28;20040;-34
2024/01/16 06:32:56;;;;;;;5.43;3.28;;;;;;;-2.33;100.00;99784.06;5082165;28;20044;-33
2024/01/16 06:35:23;;;;;;;5.85;2.95;;;;;;;-2.32;100.00;99785.72;5073429;28;20040;-34
2024/01/16 06:37:49;;;;;;;5.50;3.43;;;;;;;-2.17;100.00;99787.31;5074465;28;20178;-34
2024/01/16 06:40:14;;;;;;;5.50;3.30;;;;;;;-2.24;100.00;99786.03;5074551;28;20365;-32
2024/01/16 06:42:40;;;;;;;5.47;3.53;;;;;;;-2.24;100.00;99792.09;5074599;28;20036;-34
2024/01/16 06:45:06;;;;;;;4.30;3.45;;;;;;;-2.32;100.00;99788.34;5074618;28;20052;-33
2024/01/16 06:47:32;;;;;;;6.18;2.80;;;;;;;-2.22;100.00;99784.16;5074180;28;20138;-33
2024/01/16 06:49:58;;;;;;;5.05;3.10;;;;;;;-2.28;100.00;99784.59;5074596;28;20072;-33
2024/01/16 06:52:24;;;;;;;4.72;2.83;;;;;;;-2.30;100.00;99776.03;5074336;28;20087;-34
2024/01/16 06:54:50;;;;;;;6.05;2.70;;;;;;;-2.29;100.00;99773.31;5074514;28;20050;-34
2024/01/16 06:57:15;;;;;;;4.22;2.50;;;;;;;-2.12;99.85;99772.19;5074078;28;20048;-34
2024/01/16 06:59:41;;;;;;;4.28;2.65;;;;;;;-2.07;99.74;99774.47;5074294;28;20051;-33
2024/01/16 07:02:06;;;;;;;4.38;3.15;;;;;;;-2.08;99.91;99765.81;5074177;28;20190;-33
2024/01/16 07:04:32;;;;;;;5.20;2.95;;;;;;;-2.07;99.57;99770.09;5074256;28;20090;-33
2024/01/16 07:06:59;;;;;;;4.75;3.13;;;;;;;-2.00;98.70;99767.91;5073680;28;20048;-34
2024/01/16 07:09:25;;;;;;;3.92;3.22;;;;;;;-2.10;99.18;99762.47;5073785;28;20515;-33
2024/01/16 07:11:50;;;;;;;6.13;3.28;;;;;;;-2.13;99.63;99762.69;5073983;28;20037;-34
2024/01/16 07:14:16;;;;;;;3.20;2.20;;;;;;;-2.05;99.14;99765.59;5073914;28;20102;-34
2024/01/16 07:16:41;;;;;;;4.97;2.83;;;;;;;-2.08;99.61;99768.44;5073717;28;20488;-34
2024/01/16 07:19:07;;;;;;;5.20;2.90;;;;;;;-2.05;99.54;99765.59;5073702;28;20067;-34
2024/01/16 07:21:33;;;;;;;3.95;2.70;;;;;;;-2.06;98.91;99763.09;5072759;28;20131;-34
2024/01/16 07:23:59;;;;;;;5.95;2.92;;;;;;;-1.99;99.21;99769.56;5073218;28;20086;-34
2024/01/16 07:26:24;;;;;;;3.75;3.03;;;;;;;-1.97;99.09;99767.69;5073431;28;20064;-34
2024/01/16 07:28:49;;;;;;;3.55;2.47;;;;;;;-1.96;98.95;99770.19;5073468;28;20049;-33
2024/01/16 07:31:16;;;;;;;3.42;2.55;;;;;;;-2.02;99.57;99765.41;5073489;28;20068;-33
2024/01/16 07:33:42;;;;;;;4.55;2.67;;;;;;;-1.75;99.28;99764.44;5073492;28;20043;-33
2024/01/16 07:36:08;;;;;;;5.13;2.83;;;;;;;-1.84;98.84;99762.44;5073251;28;20567;-34
2024/01/16 07:38:35;;;;;;;5.22;3.03;;;;;;;-1.77;98.79;99764.53;5073185;28;20052;-34
2024/01/16 07:41:01;;;;;;;2.47;2.00;;;;;;;-1.79;98.52;99774.25;5073408;28;20037;-34
2024/01/16 07:43:26;;;;;;;4.50;2.83;;;;;;;-1.69;98.59;99762.22;5073264;28;20788;-34
2024/01/16 07:45:52;;;;;;;4.50;2.95;;;;;;;-1.68;98.13;99763.06;5072604;28;20123;-34
2024/01/16 07:48:17;;;;;;;4.85;2.95;;;;;;;-1.77;98.16;99761.91;5073162;28;20079;-33
2024/01/16 07:50:43;;;;;;;5.40;2.83;;;;;;;-1.67;98.39;99762.94;5073236;28;20068;-34
2024/01/16 07:53:09;;;;;;;4.05;2.33;;;;;;;-1.56;97.06;99770.03;5073284;28;20075;-34
2024/01/16 07:55:34;;;;;;;6.28;3.10;;;;;;;-1.54;96.67;99767.31;5073098;28;20071;-34
2024/01/16 07:58:00;;;;;;;3.20;2.35;;;;;;;-1.55;96.94;99776.09;5072754;28;20040;-33
2024/01/16 08:00:27;;;;;;;4.78;3.10;;;;;;;-1.23;94.96;99773.81;5072914;28;20412;-34
2024/01/16 08:02:52;;;;;;;3.38;2.55;;;;;;;-1.33;96.17;99770.19;5073226;28;20043;-34
2024/01/16 08:05:19;;;;;;;6.22;3.00;;;;;;;-1.15;94.23;99771.50;5072976;28;20032;-34
2024/01/16 08:07:44;;;;;;;3.92;2.97;;;;;;;-1.15;93.44;99781.94;5072636;28;20445;-34
2024/01/16 08:10:10;;;;;;;3.90;3.15;;;;;;;-1.05;93.04;99769.88;5072867;28;20047;-34
2024/01/16 08:12:37;;;;;;;7.55;3.10;;;;;;;-1.22;94.37;99778.09;5072901;28;20094;-34
2024/01/16 08:15:03;;;;;;;5.20;3.28;;;;;;;-0.99;95.75;99776.44;5072542;28;20037;-34
2024/01/16 08:17:28;;;;;;;4.82;3.42;;;;;;;-0.81;93.45;99782.94;5072406;28;20036;-34
2024/01/16 08:19:54;;;;;;;4.97;2.90;;;;;;;-0.86;95.08;99782.44;5072731;28;20070;-34
2024/01/16 08:22:19;;;;;;;5.68;2.90;;;;;;;-1.07;93.98;99779.59;5072463;28;20411;-35
2024/01/16 08:24:45;;;;;;;5.22;2.80;;;;;;;-0.97;94.17;99785.03;5072588;28;20032;-34
2024/01/16 08:27:10;;;;;;;5.57;3.25;;;;;;;-1.13;93.71;99791.34;5072480;28;20037;-34
2024/01/16 08:29:35;;;;;;;6.13;3.35;;;;;;;-0.92;93.09;99795.97;5072692;28;20118;-34
2024/01/16 08:32:01;;;;;;;5.57;3.05;;;;;;;-1.15;93.65;99795.84;5072689;28;20062;-34
2024/01/16 08:34:26;;;;;;;4.95;2.90;;;;;;;-0.78;93.23;99792.34;5072445;28;20040;-34
2024/01/16 08:36:56;;;;;;;4.82;3.38;;;;;;;-0.76;92.77;99800.94;5072099;28;20413;-34
2024/01/16 08:39:24;;;;;;;5.00;2.60;;;;;;;-0.57;91.48;99803.88;5055261;28;20106;-34
2024/01/16 08:41:50;;;;;;;4.60;2.70;;;;;;;-0.48;90.22;99800.56;5072288;28;20037;-34
2024/01/16 08:44:15;;;;;;;5.20;2.97;;;;;;;-0.41;89.87;99803.56;5072253;28;20403;-34
2024/01/16 08:46:40;;;;;;;4.93;3.63;;;;;;;-0.65;91.19;99801.00;5071980;28;20523;-34
2024/01/16 08:49:06;;;;;;;6.50;2.95;;;;;;;-0.44;90.76;99807.25;5072099;28;20036;-34
2024/01/16 08:51:31;;;;;;;2.95;2.42;;;;;;;-0.10;88.18;99807.34;5071989;28;20377;-34
2024/01/16 08:53:56;;;;;;;3.90;2.80;;;;;;;0.17;86.36;99809.63;5072180;28;20089;-34
2024/01/16 08:56:22;;;;;;;3.70;2.65;;;;;;;0.03;87.58;99813.31;5071609;28;20109;-34
2024/01/16 08:58:47;;;;;;;3.00;2.53;;;;;;;0.11;87.84;99812.72;5071927;28;20036;-34
2024/01/16 09:01:13;;;;;;;4.13;2.78;;;;;;;-0.03;87.75;99817.22;5071927;28;20450;-33
2024/01/16 09:03:38;;;;;;;6.57;2.85;;;;;;;-0.01;87.95;99820.53;5071973;28;20598;-34
2024/01/16 09:06:04;;;;;;;7.90;3.08;;;;;;;0.09;86.48;99820.69;5071959;28;20074;-33
2024/01/16 09:08:29;;;;;;;4.00;2.78;;;;;;;0.17;85.63;99818.31;5071657;28;20040;-33
2024/01/16 09:10:55;;;;;;;3.80;2.47;;;;;;;0.47;85.44;99816.94;5072096;28;20117;-33
2024/01/16 09:13:21;;;;;;;8.52;3.13;;;;;;;0.31;84.81;99813.81;5072046;28;20064;-33
2024/01/16 09:15:48;;;;;;;5.78;3.08;;;;;;;0.58;84.19;99827.38;5072085;28;20513;-34
2024/01/16 09:18:13;;;;;;;5.95;3.20;;;;;;;0.84;81.54;99814.84;5071849;28;20075;-34
2024/01/16 09:20:39;;;;;;;3.40;2.45;;;;;;;1.11;82.11;99808.34;5071719;28;20072;-33
2024/01/16 09:23:04;;;;;;;4.15;2.20;;;;;;;1.01;80.45;99818.75;5072008;28;20484;-36
2024/01/16 09:25:30;;;;;;;4.00;2.70;;;;;;;1.51;77.85;99821.72;5072254;28;20063;-36
2024/01/16 09:27:55;;;;;;;4.60;2.70;;;;;;;1.31;79.11;99813.69;5072867;28;20097;-33
2024/01/16 09:30:22;;;;;;;4.00;2.40;;;;;;;1.59;77.83;99814.88;5085323;28;20041;-33
2024/01/16 09:32:48;;;;;;;5.17;2.60;;;;;;;1.75;75.15;99817.06;5090787;28;20032;-34
2024/01/16 09:35:13;;;;;;;4.88;2.95;;;;;;;1.30;77.56;99816.41;5073268;28;20037;-34
2024/01/16 09:37:39;;;;;;;4.18;2.78;;;;;;;1.75;76.56;99817.06;5071612;28;20110;-33
2024/01/16 09:40:06;;;;;;;3.65;2.83;;;;;;;1.85;75.91;99820.59;5071687;28;20515;-35
2024/01/16 09:42:31;;;;;;;4.63;2.35;;;;;;;3.13;70.56;99813.97;5071859;28;20392;-34
2024/01/16 09:44:58;;;;;;;4.53;2.50;;;;;;;2.64;70.22;99833.19;5071708;28;20036;-35
2024/01/16 09:47:24;;;;;;;3.70;2.83;;;;;;;2.40;70.72;99829.06;5071438;28;20037;-35
2024/01/16 09:49:50;;;;;;;5.22;2.75;;;;;;;2.82;69.47;99828.13;5071563;28;20120;-35
2024/01/16 09:52:15;;;;;;;4.68;3.10;;;;;;;2.93;68.68;99822.75;5071579;28;20043;-35
2024/01/16 09:54:41;;;;;;;5.53;2.90;;;;;;;2.47;71.73;99833.78;5071595;28;20044;-37
2024/01/16 09:57:07;;;;;;;6.80;2.72;;;;;;;1.97;71.15;99838.94;5071408;28;20073;-36
2024/01/16 09:59:35;;;;;;;4.45;2.53;;;;;;;1.78;73.05;99832.56;5071421;28;20123;-36
2024/01/16 10:02:05;;;;;;;2.65;2.00;;;;;;;1.87;71.15;99825.72;5071355;28;20036;-36
2024/01/16 10:04:31;;;;;;;3.95;2.28;;;;;;;1.82;71.10;99825.25;5071403;28;20040;-36
2024/01/16 10:06:58;;;;;;;3.95;2.40;;;;;;;2.11;71.01;99812.31;5071209;28;20407;-36
2024/01/16 10:09:23;;;;;;;5.47;2.53;;;;;;;2.35;69.20;99805.00;5075078;28;20062;-36
2024/01/16 10:11:50;;;;;;;3.47;2.80;;;;;;;3.17;66.18;99796.06;5075250;28;20033;-36
2024/01/16 10:14:17;;;;;;;2.72;2.13;;;;;;;3.10;66.54;99792.31;5075105;28;20033;-36
2024/01/16 10:16:59;;;;;;;3.60;2.27;;;;;;;3.46;64.33;99786.41;5074308;28;20040;-36
2024/01/16 10:19:27;;;;;;;3.17;2.17;;;;;;;4.97;57.44;99779.28;5074952;28;20051;-37
2024/01/16 10:22:03;;;;;;;3.97;2.50;;;;;;;5.04;57.67;99777.69;5074824;28;20430;-37
2024/01/16 10:24:30;;;;;;;4.32;2.22;;;;;;;5.18;57.86;99771.06;5074673;28;20163;-37
2024/01/16 10:27:06;;;;;;;7.13;2.90;;;;;;;5.63;55.65;99770.97;5074534;28;20024;-37
2024/01/16 10:29:32;;;;;;;4.25;2.30;;;;;;;5.83;54.89;99768.16;5074833;28;20090;-37
2024/01/16 10:32:00;;;;;;;4.43;3.00;;;;;;;6.37;51.61;99766.19;5071750;28;20021;-36
2024/01/16 10:34:25;;;;;;;2.60;2.22;;;;;;;6.06;52.96;99771.13;5063154;28;20040;-37
2024/01/16 10:36:59;;;;;;;4.55;2.88;;;;;;;7.54;49.61;99774.97;5064966;28;20039;-37
2024/01/16 10:39:24;;;;;;;5.22;2.40;;;;;;;7.04;49.42;99751.19;5065361;28;20064;-37
2024/01/16 10:42:00;;;;;;;3.65;2.42;;;;;;;6.82;49.29;99747.34;5063247;28;20489;-37
2024/01/16 10:44:27;;;;;;;3.72;2.60;;;;;;;5.28;52.80;99755.13;5062990;28;20489;-36
2024/01/16 10:47:11;;;;;;;2.70;2.40;;;;;;;6.57;52.42;99758.84;5064451;28;20042;-35
2024/01/16 10:49:37;;;;;;;3.83;2.80;;;;;;;4.69;53.97;99754.69;5064129;28;20043;-35
2024/01/16 10:52:09;;;;;;;4.88;2.00;;;;;;;6.11;52.45;99753.81;5055232;28;20044;-35
2024/01/16 10:54:37;;;;;;;5.10;2.60;;;;;;;6.04;55.73;99754.59;5054455;28;20412;-37
2024/01/16 10:57:03;;;;;;;5.85;2.70;;;;;;;6.05;51.51;99753.59;5054136;28;20049;-37
2024/01/16 10:59:39;;;;;;;5.25;2.40;;;;;;;6.34;52.19;99753.28;5054243;28;20047;-36
2024/01/16 11:02:10;;;;;;;4.70;2.20;;;;;;;5.95;54.53;99751.09;5054133;28;20047;-37
2024/01/16 11:04:37;;;;;;;3.55;2.42;;;;;;;5.91;54.22;99744.44;5054192;28;20044;-35
2024/01/16 11:07:04;;;;;;;4.10;2.80;;;;;;;6.12;54.65;99744.91;5053801;28;20033;-34
2024/01/16 11:09:31;;;;;;;2.80;2.23;;;;;;;5.27;56.14;99743.75;5054130;28;20059;-35
2024/01/16 11:11:58;;;;;;;3.10;2.38;;;;;;;6.46;53.58;99741.44;5054093;28;20032;-37
2024/01/16 11:14:25;;;;;;;3.30;1.95;;;;;;;5.53;52.50;99729.75;5054122;28;20544;-37
2024/01/16 11:16:51;;;;;;;2.45;2.03;;;;;;;5.50;55.29;99724.78;5058861;28;20488;-37
2024/01/16 11:19:19;;;;;;;2.67;2.15;;;;;;;6.93;52.25;99719.75;5063681;28;20446;-35
2024/01/16 11:21:45;;;;;;;3.35;2.45;;;;;;;7.29;51.33;99722.94;5062606;28;20033;-34
2024/01/16 11:24:12;;;;;;;3.92;2.33;;;;;;;6.45;49.38;99715.94;5064040;28;20025;-34
2024/01/16 11:26:40;;;;;;;2.85;2.13;;;;;;;6.97;50.78;99713.94;5063473;28;20066;-34
2024/01/16 11:29:27;;;;;;;3.33;2.10;;;;;;;5.47;53.46;99712.72;5062098;28;20033;-34
2024/01/16 11:31:53;;;;;;;3.03;2.15;;;;;;;6.45;53.44;99705.38;5062852;28;20029;-37
2024/01/16 11:34:40;;;;;;;3.97;2.20;;;;;;;6.85;55.91;99696.75;5062847;28;20024;-36
2024/01/16 11:37:12;;;;;;;4.93;2.50;;;;;;;6.31;49.33;99698.03;5069012;28;20024;-35
2024/01/16 11:39:37;;;;;;;4.50;2.33;;;;;;;6.19;55.37;99690.41;5063430;28;20037;-36
2024/01/16 11:42:03;;;;;;;3.65;2.25;;;;;;;5.74;51.46;99685.34;5061829;28;20049;-36
2024/01/16 11:44:54;;;;;;;3.17;2.10;;;;;;;6.84;50.35;99686.28;5063991;28;20040;-36
2024/01/16 11:47:20;;;;;;;2.42;2.20;;;;;;;7.04;47.62;99677.06;5063420;28;20120;-36
2024/01/16 11:49:47;;;;;;;3.35;2.17;;;;;;;7.39;49.07;99675.09;5061752;28;20107;-36
2024/01/16 11:52:13;;;;;;;4.28;2.63;;;;;;;6.55;49.15;99666.38;5063360;28;20419;-36
2024/01/16 11:54:40;;;;;;;4.40;2.17;;;;;;;6.50;49.98;99658.09;5063262;28;20086;-36
2024/01/16 11:57:26;;;;;;;2.63;1.98;;;;;;;5.09;55.80;99659.28;5061509;28;20029;-37
2024/01/16 12:00:00;;;;;;;6.72;2.22;;;;;;;6.30;49.40;99652.25;5067866;28;20048;-36
2024/01/16 12:02:49;;;;;;;3.72;2.30;;;;;;;5.15;53.04;99653.38;5073326;28;20115;-36
2024/01/16 12:05:14;;;;;;;2.72;1.95;;;;;;;5.93;50.04;99644.66;5066191;28;20029;-37
2024/01/16 12:07:45;;;;;;;2.10;1.70;;;;;;;5.13;52.44;99638.66;5063608;28;20024;-37
2024/01/16 12:10:11;;;;;;;3.38;2.22;;;;;;;6.08;51.43;99626.41;5064989;28;20043;-37
2024/01/16 12:12:36;;;;;;;3.40;1.88;;;;;;;6.16;50.07;99629.88;5063496;28;20467;-34
2024/01/16 12:15:01;;;;;;;2.78;2.00;;;;;;;5.09;51.53;99626.78;5070624;28;20060;-34
2024/01/16 12:17:27;;;;;;;2.95;2.00;;;;;;;6.28;53.04;99626.97;5069572;28;20036;-35
2024/01/16 12:19:53;;;;;;;3.65;2.22;;;;;;;5.68;50.10;99619.91;5070702;28;20408;-37
2024/01/16 12:22:21;;;;;;;2.85;2.08;;;;;;;5.84;49.49;99621.78;5061681;28;20040;-36
2024/01/16 12:24:47;;;;;;;3.10;2.00;;;;;;;5.56;48.65;99627.25;5062850;28;20040;-36
2024/01/16 12:27:13;;;;;;;2.85;1.70;;;;;;;5.08;50.03;99633.81;5064025;28;20088;-36
2024/01/16 12:29:41;;;;;;;3.17;1.63;;;;;;;5.33;49.26;99629.56;5073366;28;20164;-36
2024/01/16 12:32:10;;;;;;;;;;;;;;;5.89;48.82;99622.16;5073217;28;20029;-33
2024/01/16 12:34:45;;;;;;;3.00;1.65;;;;;;;4.47;49.88;99626.69;5063218;28;20335;-36
2024/01/16 12:37:11;;;;;;;2.72;1.67;;;;;;;5.12;49.92;99619.34;5062418;28;20041;-37
2024/01/16 12:39:36;;;;;;;4.20;2.00;;;;;;;5.28;50.10;99620.44;5060825;28;20035;-35
2024/01/16 12:42:02;;;;;;;2.92;1.70;;;;;;;5.39;49.15;99620.19;5062450;28;20029;-35
2024/01/16 12:44:28;;;;;;;2.80;1.67;;;;;;;5.90;47.94;99608.75;5062384;28;20099;-36
2024/01/16 12:46:58;;;;;;;3.58;1.67;;;;;;;4.56;51.09;99602.06;5059490;28;20047;-36
2024/01/16 12:49:24;;;;;;;2.72;1.85;;;;;;;4.82;52.01;99602.09;5061954;28;20068;-36
2024/01/16 12:51:50;;;;;;;2.83;1.80;;;;;;;3.96;53.39;99588.53;5062333;28;20047;-36
2024/01/16 12:54:18;;;;;;;2.78;2.00;;;;;;;4.35;53.26;99593.59;5061270;28;20473;-36
2024/01/16 12:56:44;;;;;;;3.42;2.08;;;;;;;5.27;51.94;99589.75;5061894;28;20435;-36
2024/01/16 12:59:13;;;;;;;2.97;1.70;;;;;;;5.34;51.03;99583.69;5060521;28;20037;-36
2024/01/16 13:01:44;;;;;;;4.75;2.00;;;;;;;4.75;51.91;99584.41;5062103;28;20036;-36
2024/01/16 13:04:10;;;;;;;2.22;1.63;;;;;;;5.27;51.30;99585.28;5062780;28;20055;-36
2024/01/16 13:06:36;;;;;;;2.53;1.90;;;;;;;4.66;53.45;99583.50;5059450;28;20031;-36
2024/01/16 13:09:09;;;;;;;5.10;1.92;;;;;;;4.77;52.07;99574.53;5061367;28;20033;-36
2024/01/16 13:12:04;;;;;;;2.88;1.90;;;;;;;3.48;55.08;99572.97;5062407;28;20082;-36
2024/01/16 13:14:30;;;;;;;2.92;2.10;;;;;;;4.31;54.67;99563.25;5049142;28;20077;-36
2024/01/16 13:16:56;;;;;;;2.67;2.03;;;;;;;4.88;53.21;99566.38;5060442;28;20029;-36
2024/01/16 13:19:21;;;;;;;3.08;2.00;;;;;;;5.13;51.20;99562.91;5061311;28;20488;-36
2024/01/16 13:21:48;;;;;;;3.85;1.90;;;;;;;4.79;50.50;99565.47;5062154;28;20380;-36
2024/01/16 13:24:13;;;;;;;3.13;2.08;;;;;;;4.57;50.27;99561.50;5060183;28;20037;-36
2024/01/16 13:26:39;;;;;;;2.95;2.05;;;;;;;4.26;52.62;99554.94;5061453;28;20167;-36
2024/01/16 13:29:05;;;;;;;5.82;2.15;;;;;;;4.37;52.14;99549.47;5061619;28;20032;-36
2024/01/16 13:31:31;;;;;;;4.10;2.20;;;;;;;4.09;54.83;99546.84;5060033;28;20024;-34
2024/01/16 13:33:57;;;;;;;2.88;2.00;;;;;;;3.86;54.63;99545.63;5061985;28;20051;-34
2024/01/16 13:36:22;;;;;;;3.78;2.10;;;;;;;3.48;55.45;99536.94;5061220;28;20037;-35
2024/01/16 13:38:48;;;;;;;4.07;2.10;;;;;;;3.64;54.79;99530.19;5060307;28;20638;-34
2024/01/16 13:41:14;;;;;;;5.78;2.30;;;;;;;3.84;54.00;99520.38;5062212;28;20036;-34
2024/01/16 13:43:40;;;;;;;3.15;2.10;;;;;;;4.16;51.65;99512.00;5063790;28;20040;-34
2024/01/16 13:46:08;;;;;;;3.05;1.90;;;;;;;4.47;51.94;99512.44;5064815;28;20052;-35
2024/01/16 13:48:34;;;;;;;4.53;2.10;;;;;;;3.67;53.51;99516.75;5066395;28;20025;-35
2024/01/16 13:51:00;;;;;;;3.08;1.60;;;;;;;3.40;54.32;99512.31;5070765;28;20049;-35
2024/01/16 13:53:25;;;;;;;3.58;2.30;;;;;;;3.72;53.45;99511.88;5065073;28;20044;-34
2024/01/16 13:55:50;;;;;;;3.10;1.98;;;;;;;3.63;53.47;99518.81;5066265;28;20111;-35
2024/01/16 13:58:16;;;;;;;4.38;2.10;;;;;;;2.98;54.97;99513.53;5062670;28;20039;-35
2024/01/16 14:00:42;;;;;;;4.07;1.75;;;;;;;3.29;56.10;99515.09;5065187;28;20033;-35
2024/01/16 14:03:07;;;;;;;6.70;2.47;;;;;;;3.48;53.48;99518.50;5065751;28;20034;-35
2024/01/16 14:05:32;;;;;;;3.55;2.13;;;;;;;2.83;54.72;99509.69;5063929;28;20044;-35
2024/01/16 14:07:58;;;;;;;6.95;1.92;;;;;;;3.59;53.81;99516.66;5065141;28;20041;-34
2024/01/16 14:10:24;;;;;;;2.80;1.70;;;;;;;3.29;53.55;99515.94;5048535;28;20106;-35
2024/01/16 14:12:51;;;;;;;3.50;2.25;;;;;;;3.43;53.18;99522.53;5063615;28;20041;-35
2024/01/16 14:15:20;;;;;;;5.72;2.38;;;;;;;3.25;55.40;99517.19;5064677;28;20042;-35
2024/01/16 14:17:56;;;;;;;3.95;1.60;;;;;;;3.10;54.99;99511.56;5064868;28;20064;-35
2024/01/16 14:20:23;;;;;;;3.00;1.80;;;;;;;3.15;54.87;99526.94;5064387;28;20036;-35
2024/01/16 14:22:52;;;;;;;2.63;1.60;;;;;;;3.06;55.17;99530.41;5063723;28;20108;-35
2024/01/16 14:25:19;;;;;;;2.85;1.80;;;;;;;2.74;56.39;99531.59;5063963;28;20089;-36
2024/01/16 14:27:48;;;;;;;4.47;1.92;;;;;;;2.71;56.25;99534.50;5062635;28;20044;-35
2024/01/16 14:30:15;;;;;;;3.38;2.03;;;;;;;2.73;55.83;99536.00;5065442;28;20111;-36
2024/01/16 14:32:42;;;;;;;2.07;1.20;;;;;;;2.66;54.51;99537.53;5064022;28;20036;-35
2024/01/16 14:35:09;;;;;;;1.70;1.50;;;;;;;2.62;56.06;99530.09;5063591;28;20662;-35
2024/01/16 14:37:35;;;;;;;2.03;1.67;;;;;;;2.94;56.08;99529.75;5065386;28;20670;-35
2024/01/16 14:40:06;;;;;;;3.17;1.80;;;;;;;2.60;57.32;99527.56;5064122;28;20127;-36
2024/01/16 14:42:33;;;;;;;2.33;1.70;;;;;;;2.37;58.77;99518.31;5046282;28;20431;-35
2024/01/16 14:44:59;;;;;;;2.88;1.98;;;;;;;2.35;58.56;99520.28;5064793;28;20036;-35
2024/01/16 14:47:25;;;;;;;3.67;1.83;;;;;;;2.38;57.41;99512.91;5064270;28;20041;-35
2024/01/16 14:49:50;;;;;;;3.20;1.83;;;;;;;2.48;56.77;99522.59;5062926;28;20029;-35
2024/01/16 14:52:17;;;;;;;2.67;1.73;;;;;;;2.17;57.55;99518.31;5064809;28;20496;-34
2024/01/16 14:54:43;;;;;;;3.70;2.25;;;;;;;2.24;58.41;99512.50;5063715;28;20120;-35
2024/01/16 14:57:09;;;;;;;3.60;2.08;;;;;;;2.28;58.19;99520.00;5061948;28;20065;-35
2024/01/16 14:59:35;;;;;;;3.67;2.00;;;;;;;2.00;58.44;99518.97;5064878;28;20036;-35
2024/01/16 15:02:08;;;;;;;3.08;1.90;;;;;;;2.09;61.02;99512.09;5063992;28;20389;-35
2024/01/16 15:04:33;;;;;;;3.50;2.00;;;;;;;1.97;59.43;99511.38;5063542;28;20048;-35
2024/01/16 15:06:59;;;;;;;3.38;1.90;;;;;;;1.75;60.64;99514.22;5065445;28;20036;-35
2024/01/16 15:09:24;;;;;;;3.03;2.20;;;;;;;1.82;61.04;99512.72;5065744;28;20045;-35
2024/01/16 15:11:49;;;;;;;2.72;1.95;;;;;;;1.66;61.95;99513.25;5063661;28;20041;-35
2024/01/16 15:14:16;;;;;;;3.78;2.05;;;;;;;1.70;61.74;99519.06;5065478;28;20038;-35
2024/01/16 15:16:42;;;;;;;4.63;2.15;;;;;;;1.72;62.18;99519.75;5065187;28;20043;-35
2024/01/16 15:19:07;;;;;;;2.85;1.95;;;;;;;1.57;61.74;99519.31;5065091;28;20111;-35
2024/01/16 15:21:32;;;;;;;2.85;2.00;;;;;;;1.33;63.58;99520.47;5070596;28;20063;-35
2024/01/16 15:23:58;;;;;;;3.03;1.70;;;;;;;1.41;62.96;99516.34;5065733;28;20086;-35
2024/01/16 15:26:25;;;;;;;2.88;1.80;;;;;;;1.36;62.29;99504.44;5063017;28;20400;-35
2024/01/16 15:28:50;;;;;;;3.50;1.73;;;;;;;1.20;62.77;99517.22;5064320;28;20040;-37
2024/01/16 15:31:16;;;;;;;2.50;1.98;;;;;;;1.26;62.52;99515.88;5062272;28;20037;-36
2024/01/16 15:33:42;;;;;;;1.92;1.60;;;;;;;1.13;63.37;99523.13;5063576;28;20032;-35
2024/01/16 15:36:07;;;;;;;6.22;1.95;;;;;;;0.89;63.60;99518.16;5063622;28;20028;-35
2024/01/16 15:38:33;;;;;;;1.98;1.60;;;;;;;0.91;63.87;99521.47;5061881;28;20055;-34
2024/01/16 15:40:58;;;;;;;1.55;1.38;;;;;;;0.75;65.23;99520.16;5063868;28;20024;-35
2024/01/16 15:43:24;;;;;;;3.70;2.03;;;;;;;0.65;65.58;99507.94;5063346;28;20508;-35
2024/01/16 15:45:49;;;;;;;1.80;1.17;;;;;;;0.62;65.54;99509.03;5067319;28;20041;-35
2024/01/16 15:48:15;;;;;;;4.15;1.90;;;;;;;0.57;66.08;99510.38;5068115;28;20040;-35
2024/01/16 15:50:40;;;;;;;2.40;1.98;;;;;;;0.43;67.35;99511.50;5062383;28;20041;-35
2024/01/16 15:53:06;;;;;;;3.95;2.45;;;;;;;0.43;67.54;99506.25;5062708;28;20032;-35
2024/01/16 15:55:31;;;;;;;3.30;2.30;;;;;;;0.30;68.83;99503.00;5063722;28;20049;-35
2024/01/16 15:57:57;;;;;;;1.98;1.70;;;;;;;0.16;69.78;99509.38;5061380;28;20116;-34
2024/01/16 16:00:23;;;;;;;3.70;2.22;;;;;;;0.24;71.12;99515.63;5062461;28;20376;-35
2024/01/16 16:02:49;;;;;;;3.03;2.22;;;;;;;0.14;70.08;99522.59;5062845;28;20488;-34
2024/01/16 16:05:14;;;;;;;5.03;2.42;;;;;;;0.04;69.92;99520.81;5060586;28;20040;-35
2024/01/16 16:07:40;;;;;;;3.53;2.20;;;;;;;0.01;71.45;99519.31;5062932;28;20047;-35
2024/01/16 16:10:06;;;;;;;2.88;2.00;;;;;;;0.00;73.40;99530.72;5062688;28;20095;-35
2024/01/16 16:12:31;;;;;;;3.28;1.88;;;;;;;0.21;72.94;99533.41;5061367;28;20140;-35
2024/01/16 16:14:57;;;;;;;4.10;2.65;;;;;;;0.24;71.08;99541.81;5063506;28;20444;-35
2024/01/16 16:17:22;;;;;;;3.78;2.10;;;;;;;0.07;73.12;99545.00;5061896;28;20051;-35
2024/01/16 16:19:49;;;;;;;3.78;2.08;;;;;;;-0.36;77.83;99551.00;5061754;28;20553;-35
2024/01/16 16:22:15;;;;;;;3.35;2.20;;;;;;;-0.61;79.26;99536.41;5063124;28;20483;-35
2024/01/16 16:24:43;;;;;;;4.70;2.53;;;;;;;-0.44;79.38;99534.25;5061595;28;20021;-35
2024/01/16 16:27:25;;;;;;;3.25;2.13;;;;;;;-0.66;80.45;99532.47;5061448;28;20449;-35
2024/01/16 16:29:55;;;;;;;4.57;2.17;;;;;;;-0.79;81.14;99531.75;5063053;28;20392;-35
2024/01/16 16:32:22;;;;;;;4.53;2.35;;;;;;;-0.83;81.78;99532.00;5061486;28;20041;-34
2024/01/16 16:34:47;;;;;;;4.85;2.83;;;;;;;-0.90;82.31;99535.22;5061684;28;20032;-35
2024/01/16 16:37:13;;;;;;;4.82;2.63;;;;;;;-0.80;83.17;99524.88;5062755;28;20677;-36
2024/01/16 16:39:39;;;;;;;6.35;3.38;;;;;;;-1.04;84.06;99533.66;5061316;28;20025;-35
2024/01/16 16:42:05;;;;;;;4.47;2.72;;;;;;;-0.85;85.27;99539.16;5061945;28;20036;-35
2024/01/16 16:44:30;;;;;;;6.80;2.45;;;;;;;-0.86;84.69;99537.44;5062738;28;20116;-35
2024/01/16 16:46:55;;;;;;;3.38;1.92;;;;;;;-0.79;84.83;99544.81;5060656;28;20036;-35
2024/01/16 16:49:21;;;;;;;6.28;3.03;;;;;;;-0.94;85.56;99541.63;5062481;28;20116;-35
2024/01/16 16:51:47;;;;;;;4.18;2.33;;;;;;;-1.05;86.75;99541.59;5061963;28;20489;-35
2024/01/16 16:54:12;;;;;;;4.68;2.72;;;;;;;-0.83;84.26;99536.41;5060636;28;20049;-35
2024/01/16 16:56:40;;;;;;;6.22;2.83;;;;;;;-0.77;84.09;99541.16;5060473;28;20029;-35
2024/01/16 16:59:07;;;;;;;5.63;3.33;;;;;;;-0.85;83.96;99546.13;5061394;28;20028;-35